createdAt,value
2019-04-14T00:01:30.525Z,13.97
2019-04-14T00:04:03.664Z,13.93
2019-04-14T00:06:35.084Z,13.50
2019-04-14T00:09:05.328Z,13.13
2019-04-14T00:11:34.654Z,13.27
2019-04-14T00:14:05.992Z,14.43
2019-04-14T00:16:44.595Z,13.33
2019-04-14T00:19:17.907Z,15.03
2019-04-14T00:21:48.229Z,13.03
2019-04-14T00:24:20.699Z,14.00
2019-04-14T00:26:51.071Z,14.23
2019-04-14T00:29:21.758Z,14.83
2019-04-14T00:31:55.261Z,13.13
2019-04-14T00:34:26.878Z,13.97
2019-04-14T00:37:22.727Z,15.03
2019-04-14T00:40:14.962Z,13.17
2019-04-14T00:42:45.191Z,14.67
2019-04-14T00:45:17.657Z,15.87
2019-04-14T00:48:01.122Z,15.00
2019-04-14T00:50:23.670Z,16.17
2019-04-14T00:53:16.385Z,15.47
2019-04-14T00:55:46.686Z,18.43
2019-04-14T00:58:17.079Z,15.13
2019-04-14T01:00:47.412Z,13.53
2019-04-14T01:03:20.466Z,16.30
2019-04-14T01:05:50.778Z,15.57
2019-04-14T01:08:21.120Z,14.07
2019-04-14T01:10:51.963Z,13.93
2019-04-14T01:13:22.788Z,14.87
2019-04-14T01:16:00.504Z,13.77
2019-04-14T01:18:25.427Z,15.73
2019-04-14T01:21:00.180Z,13.53
2019-04-14T01:23:32.648Z,14.20
2019-04-14T01:26:02.937Z,13.40
2019-04-14T01:28:33.624Z,14.33
2019-04-14T01:31:25.391Z,15.67
2019-04-14T01:33:55.708Z,14.47
2019-04-14T01:36:26.029Z,13.13
2019-04-14T01:38:56.367Z,13.67
2019-04-14T01:41:30.296Z,12.77
2019-04-14T01:44:00.344Z,13.60
2019-04-14T01:46:32.758Z,14.80
2019-04-14T01:49:05.002Z,12.83
2019-04-14T01:51:44.234Z,14.73
2019-04-14T01:54:17.113Z,13.60
2019-04-14T01:57:04.526Z,14.47
2019-04-14T01:59:34.833Z,13.97
2019-04-14T02:02:06.112Z,12.77
2019-04-14T02:04:57.478Z,14.13
2019-04-14T02:07:27.648Z,12.70
2019-04-14T02:09:57.580Z,14.30
2019-04-14T02:12:28.112Z,13.77
2019-04-14T02:14:58.428Z,14.03
2019-04-14T02:17:30.741Z,13.53
2019-04-14T02:20:01.221Z,13.10
2019-04-14T02:22:31.280Z,13.93
2019-04-14T02:25:05.654Z,14.63
2019-04-14T02:27:36.049Z,13.40
2019-04-14T02:30:08.914Z,14.50
2019-04-14T02:33:03.479Z,15.20
2019-04-14T02:35:37.198Z,15.33
2019-04-14T02:38:13.766Z,14.10
2019-04-14T02:43:04.952Z,14.77
2019-04-14T02:45:43.187Z,15.53
2019-04-14T02:48:20.328Z,15.30
2019-04-14T02:50:30.187Z,16.40
2019-04-14T02:53:09.077Z,15.60
2019-04-14T02:58:11.632Z,13.60
2019-04-14T03:03:10.524Z,14.97
2019-04-14T03:05:44.375Z,15.60
2019-04-14T03:08:08.239Z,15.90
2019-04-14T03:11:03.769Z,16.80
2019-04-14T03:16:02.477Z,15.17
2019-04-14T03:21:41.953Z,15.33
2019-04-14T03:27:06.289Z,15.23
2019-04-14T03:29:40.204Z,18.20
2019-04-14T03:34:52.273Z,16.37
2019-04-14T03:39:49.728Z,16.67
2019-04-14T03:42:24.890Z,16.17
2019-04-14T03:44:41.970Z,19.80
2019-04-14T03:47:21.329Z,16.77
2019-04-14T03:49:47.099Z,19.17
2019-04-14T03:52:31.891Z,16.87
2019-04-14T03:54:44.410Z,17.40
2019-04-14T03:56:59.827Z,17.20
2019-04-14T03:59:30.317Z,17.13
2019-04-14T04:02:01.246Z,17.00
2019-04-14T04:04:37.951Z,19.70
2019-04-14T04:07:14.956Z,17.57
2019-04-14T04:09:45.449Z,17.33
2019-04-14T04:12:15.952Z,19.43
2019-04-14T04:14:46.287Z,16.57
2019-04-14T04:17:34.153Z,17.57
2019-04-14T04:20:07.347Z,17.73
2019-04-14T04:22:45.607Z,19.20
2019-04-14T04:25:16.149Z,17.20
2019-04-14T04:27:46.222Z,17.47
2019-04-14T04:30:34.137Z,17.17
2019-04-14T04:33:10.912Z,17.83
2019-04-14T04:35:41.394Z,18.17
2019-04-14T04:38:18.384Z,19.63
2019-04-14T04:40:55.107Z,18.27
2019-04-14T04:43:25.512Z,20.00
2019-04-14T04:45:55.971Z,19.03
2019-04-14T04:48:26.379Z,19.83
2019-04-14T04:50:56.469Z,19.13
2019-04-14T04:53:26.789Z,19.70
2019-04-14T04:55:57.022Z,20.27
2019-04-14T04:58:28.386Z,20.33
2019-04-14T05:00:59.604Z,22.60
2019-04-14T05:03:29.711Z,18.33
2019-04-14T05:06:54.747Z,20.23
2019-04-14T05:09:25.215Z,19.30
2019-04-14T05:12:07.332Z,19.97
2019-04-14T05:14:56.698Z,20.50
2019-04-14T05:17:38.941Z,20.23
2019-04-14T05:20:09.553Z,20.10
2019-04-14T05:22:39.838Z,21.23
2019-04-14T05:25:10.143Z,20.43
2019-04-14T05:27:40.912Z,22.10
2019-04-14T05:30:11.191Z,19.83
2019-04-14T05:32:43.467Z,19.43
2019-04-14T05:35:14.196Z,21.03
2019-04-14T05:37:44.766Z,20.60
2019-04-14T05:40:16.789Z,20.83
2019-04-14T05:42:47.251Z,19.93
2019-04-14T05:45:17.566Z,19.67
2019-04-14T05:47:47.970Z,20.57
2019-04-14T05:50:18.247Z,20.73
2019-04-14T05:52:49.287Z,18.80
2019-04-14T05:55:19.941Z,20.33
2019-04-14T05:57:54.568Z,21.17
2019-04-14T06:00:25.640Z,19.50
2019-04-14T06:02:55.236Z,19.57
2019-04-14T06:05:32.592Z,21.07
2019-04-14T06:08:03.677Z,20.20
2019-04-14T06:10:53.387Z,20.27
2019-04-14T06:13:24.614Z,21.63
2019-04-14T06:15:54.940Z,21.47
2019-04-14T06:18:27.333Z,21.97
2019-04-14T06:20:57.665Z,19.40
2019-04-14T06:23:28.755Z,19.70
2019-04-14T06:26:01.152Z,19.63
2019-04-14T06:28:32.493Z,21.47
2019-04-14T06:34:09.290Z,21.83
2019-04-14T06:36:52.494Z,22.13
2019-04-14T06:39:23.083Z,22.43
2019-04-14T06:41:53.406Z,20.43
2019-04-14T06:44:23.729Z,19.53
2019-04-14T06:46:54.072Z,21.07
2019-04-14T06:49:24.393Z,21.57
2019-04-14T06:51:54.711Z,20.20
2019-04-14T06:54:25.066Z,23.90
2019-04-14T06:56:55.397Z,19.40
2019-04-14T06:59:26.474Z,20.50
2019-04-14T07:02:17.219Z,21.13
2019-04-14T07:04:47.539Z,18.93
2019-04-14T07:07:18.632Z,21.07
2019-04-14T07:09:48.975Z,20.37
2019-04-14T07:12:19.296Z,20.87
2019-04-14T07:14:51.651Z,20.90
2019-04-14T07:17:21.991Z,20.70
2019-04-14T07:20:02.011Z,21.00
2019-04-14T07:22:24.671Z,19.37
2019-04-14T07:24:55.024Z,20.50
2019-04-14T07:27:25.346Z,18.53
2019-04-14T07:29:55.671Z,21.03
2019-04-14T07:32:28.519Z,19.23
2019-04-14T07:35:01.633Z,19.10
2019-04-14T07:37:47.636Z,19.33
2019-04-14T07:40:20.398Z,20.60
2019-04-14T07:43:04.913Z,19.37
2019-04-14T07:45:36.001Z,19.93
2019-04-14T07:48:11.244Z,18.33
2019-04-14T07:50:57.738Z,16.93
2019-04-14T07:53:28.073Z,19.33
2019-04-14T07:56:01.061Z,17.90
2019-04-14T07:58:35.496Z,19.07
2019-04-14T08:01:05.823Z,17.03
2019-04-14T08:03:54.049Z,17.60
2019-04-14T08:06:24.368Z,19.17
2019-04-14T08:08:54.694Z,16.70
2019-04-14T08:11:26.093Z,17.67
2019-04-14T08:13:56.644Z,19.80
2019-04-14T08:16:27.244Z,15.63
2019-04-14T08:18:57.592Z,18.43
2019-04-14T08:21:28.154Z,18.97
2019-04-14T08:23:58.474Z,17.57
2019-04-14T08:26:28.817Z,17.93
2019-04-14T08:28:59.136Z,17.17
2019-04-14T08:31:29.463Z,16.47
2019-04-14T08:33:59.810Z,15.40
2019-04-14T08:36:49.217Z,14.17
2019-04-14T08:39:19.575Z,13.80
2019-04-14T08:41:55.791Z,13.67
2019-04-14T08:44:41.086Z,15.40
2019-04-14T08:47:29.419Z,15.63
2019-04-14T08:50:08.351Z,13.30
2019-04-14T08:52:40.731Z,14.37
2019-04-14T08:55:11.040Z,13.40
2019-04-14T08:57:53.014Z,14.57
2019-04-14T09:00:35.202Z,14.43
2019-04-14T09:03:11.879Z,15.23
2019-04-14T09:05:41.737Z,15.00
2019-04-14T09:08:12.053Z,14.00
2019-04-14T09:10:44.958Z,14.33
2019-04-14T09:13:17.562Z,14.67
2019-04-14T09:15:47.883Z,12.17
2019-04-14T09:18:18.259Z,12.80
2019-04-14T09:20:52.451Z,13.70
2019-04-14T09:23:24.071Z,13.17
2019-04-14T09:25:54.349Z,12.27
2019-04-14T09:28:24.669Z,12.53
2019-04-14T09:31:01.187Z,14.93
2019-04-14T09:33:32.270Z,15.67
2019-04-14T09:36:04.629Z,14.17
2019-04-14T09:38:34.982Z,13.40
2019-04-14T09:41:24.674Z,14.00
2019-04-14T09:43:55.014Z,14.10
2019-04-14T09:46:25.327Z,15.07
2019-04-14T09:48:55.657Z,13.73
2019-04-14T09:51:25.991Z,14.50
2019-04-14T09:53:56.307Z,14.10
2019-04-14T09:56:26.617Z,12.37
2019-04-14T09:58:57.217Z,15.37
2019-04-14T10:01:27.545Z,13.03
2019-04-14T10:03:57.883Z,12.97
2019-04-14T10:06:30.276Z,14.30
2019-04-14T10:09:00.591Z,13.97
2019-04-14T10:11:56.291Z,13.40
2019-04-14T10:14:23.444Z,13.63
2019-04-14T10:16:53.764Z,13.40
2019-04-14T10:19:24.111Z,13.47
2019-04-14T10:21:59.335Z,13.57
2019-04-14T10:24:29.651Z,13.57
2019-04-14T10:27:00.003Z,12.93
2019-04-14T10:29:36.456Z,14.27
2019-04-14T10:32:06.780Z,13.53
2019-04-14T10:34:37.118Z,13.00
2019-04-14T10:37:07.437Z,14.33
2019-04-14T10:39:37.756Z,13.40
2019-04-14T10:42:08.098Z,13.00
2019-04-14T10:47:26.732Z,12.20
2019-04-14T10:49:57.821Z,12.57
2019-04-14T10:52:28.134Z,13.07
2019-04-14T10:54:58.473Z,13.17
2019-04-14T10:57:28.787Z,13.70
2019-04-14T11:00:00.129Z,13.40
2019-04-14T11:02:32.521Z,12.40
2019-04-14T11:05:02.839Z,13.07
2019-04-14T11:07:39.318Z,12.10
2019-04-14T11:10:09.641Z,11.70
2019-04-14T11:12:39.978Z,12.73
2019-04-14T11:15:10.317Z,14.13
2019-04-14T11:17:40.626Z,12.50
2019-04-14T11:20:10.943Z,12.77
2019-04-14T11:22:41.294Z,12.27
2019-04-14T11:25:11.611Z,11.70
2019-04-14T11:27:41.926Z,12.47
2019-04-14T11:30:12.274Z,12.70
2019-04-14T11:32:48.969Z,12.47
2019-04-14T11:35:19.331Z,11.70
2019-04-14T11:38:06.416Z,12.47
2019-04-14T11:40:42.462Z,12.73
2019-04-14T11:43:13.538Z,10.80
2019-04-14T11:45:43.859Z,11.43
2019-04-14T11:48:14.219Z,12.60
2019-04-14T11:50:44.522Z,12.97
2019-04-14T11:53:34.237Z,12.17
2019-04-14T11:56:04.581Z,13.00
2019-04-14T11:58:35.929Z,11.50
2019-04-14T12:01:11.936Z,11.20
2019-04-14T12:04:07.366Z,11.67
2019-04-14T12:06:55.545Z,11.77
2019-04-14T12:09:32.231Z,12.47
2019-04-14T12:12:02.575Z,13.33
2019-04-14T12:14:32.893Z,12.77
2019-04-14T12:17:03.218Z,13.90
2019-04-14T12:19:33.562Z,13.90
2019-04-14T12:22:08.626Z,13.63
2019-04-14T12:24:36.033Z,13.23
2019-04-14T12:27:06.380Z,14.00
2019-04-14T12:29:41.227Z,14.60
2019-04-14T12:32:11.130Z,14.07
2019-04-14T12:34:43.515Z,15.13
2019-04-14T12:37:18.964Z,15.37
2019-04-14T12:39:49.295Z,15.17
2019-04-14T12:42:34.639Z,15.97
2019-04-14T12:45:07.391Z,14.50
2019-04-14T12:47:40.658Z,15.43
2019-04-14T12:50:25.661Z,12.60
2019-04-14T12:52:55.982Z,13.37
2019-04-14T12:55:27.075Z,15.87
2019-04-14T12:58:18.829Z,16.00
2019-04-14T13:00:49.147Z,16.13
2019-04-14T13:03:21.507Z,15.97
2019-04-14T13:05:51.853Z,14.87
2019-04-14T13:08:23.194Z,15.77
2019-04-14T13:10:53.512Z,14.80
2019-04-14T13:13:23.873Z,16.83
2019-04-14T13:15:54.189Z,15.70
2019-04-14T13:18:25.278Z,13.90
2019-04-14T13:20:55.603Z,14.73
2019-04-14T13:23:28.999Z,15.70
2019-04-14T13:25:59.316Z,14.17
2019-04-14T13:28:29.673Z,13.23
2019-04-14T13:31:06.012Z,15.63
2019-04-14T13:33:36.351Z,14.70
2019-04-14T13:36:06.676Z,13.57
2019-04-14T13:38:45.244Z,15.73
2019-04-14T13:41:16.341Z,15.87
2019-04-14T13:43:53.836Z,15.00
2019-04-14T13:46:24.161Z,15.27
2019-04-14T13:49:16.690Z,15.00
2019-04-14T13:51:47.016Z,17.43
2019-04-14T13:54:17.337Z,14.47
2019-04-14T13:56:47.696Z,16.00
2019-04-14T13:59:18.018Z,16.33
2019-04-14T14:01:48.332Z,15.63
2019-04-14T14:04:41.125Z,16.87
2019-04-14T14:07:12.210Z,17.37
2019-04-14T14:09:42.540Z,17.80
2019-04-14T14:12:18.804Z,17.87
2019-04-14T14:17:46.560Z,15.90
2019-04-14T14:20:35.879Z,14.20
2019-04-14T14:23:12.134Z,14.40
2019-04-14T14:25:51.420Z,15.07
2019-04-14T14:28:22.523Z,13.87
2019-04-14T14:30:52.855Z,14.23
2019-04-14T14:33:23.170Z,14.20
2019-04-14T14:36:12.896Z,15.57
2019-04-14T14:38:43.984Z,15.47
2019-04-14T14:41:20.478Z,15.57
2019-04-14T14:43:50.800Z,13.93
2019-04-14T14:46:37.046Z,14.53
2019-04-14T14:49:07.284Z,14.53
2019-04-14T14:51:40.249Z,14.03
2019-04-14T14:54:10.591Z,12.37
2019-04-14T14:56:40.917Z,14.00
2019-04-14T14:59:11.240Z,13.27
2019-04-14T15:01:41.584Z,14.03
2019-04-14T15:04:11.980Z,14.63
2019-04-14T15:06:43.249Z,15.60
2019-04-14T15:09:13.593Z,14.90
2019-04-14T15:11:49.032Z,16.23
2019-04-14T15:14:26.694Z,14.03
2019-04-14T15:16:57.012Z,15.00
2019-04-14T15:19:28.098Z,15.73
2019-04-14T15:22:04.571Z,15.47
2019-04-14T15:24:37.958Z,15.17
2019-04-14T15:27:10.351Z,14.40
2019-04-14T15:29:40.672Z,13.77
2019-04-14T15:32:17.159Z,16.30
2019-04-14T15:34:47.479Z,17.43
2019-04-14T15:37:17.810Z,16.90
2019-04-14T15:39:48.574Z,16.00
2019-04-14T15:42:18.899Z,15.73
2019-04-14T15:44:49.983Z,15.23
2019-04-14T15:47:25.442Z,15.13
2019-04-14T15:49:55.757Z,15.17
2019-04-14T15:52:32.233Z,15.00
2019-04-14T15:55:08.684Z,14.73
2019-04-14T15:57:42.643Z,14.77
2019-04-14T16:00:31.020Z,16.37
2019-04-14T16:03:01.365Z,16.43
2019-04-14T16:05:31.689Z,16.33
2019-04-14T16:08:07.732Z,14.87
2019-04-14T16:10:40.566Z,15.60
2019-04-14T16:13:13.293Z,14.83
2019-04-14T16:15:46.528Z,14.53
2019-04-14T16:18:35.033Z,13.70
2019-04-14T16:21:05.382Z,15.60
2019-04-14T16:23:35.700Z,15.20
2019-04-14T16:26:18.140Z,14.97
2019-04-14T16:29:25.151Z,13.53
2019-04-14T16:32:07.087Z,15.73
2019-04-14T16:34:39.982Z,15.67
2019-04-14T16:37:10.298Z,15.03
2019-04-14T16:39:40.652Z,14.43
2019-04-14T16:42:15.058Z,15.10
2019-04-14T16:44:45.376Z,15.53
2019-04-14T16:47:16.739Z,14.13
2019-04-14T16:49:50.124Z,14.83
2019-04-14T16:52:29.438Z,15.60
2019-04-14T16:55:03.084Z,16.07
2019-04-14T16:57:46.245Z,14.40
2019-04-14T17:00:16.558Z,17.00
2019-04-14T17:02:46.875Z,16.47
2019-04-14T17:05:18.245Z,16.13
2019-04-14T17:07:48.571Z,12.63
2019-04-14T17:10:18.889Z,15.57
2019-04-14T17:12:49.226Z,16.90
2019-04-14T17:15:28.070Z,17.97
2019-04-14T17:18:14.075Z,15.33
2019-04-14T17:20:53.062Z,15.07
2019-04-14T17:23:35.327Z,14.97
2019-04-14T17:28:58.045Z,15.33
2019-04-14T17:31:28.368Z,16.27
2019-04-14T17:34:01.370Z,15.60
2019-04-14T17:36:50.460Z,15.33
2019-04-14T17:39:20.793Z,15.93
2019-04-14T17:42:02.856Z,16.67
2019-04-14T17:44:45.563Z,18.67
2019-04-14T17:47:34.097Z,15.33
2019-04-14T17:50:12.879Z,16.33
2019-04-14T17:52:43.248Z,16.10
2019-04-14T17:55:31.423Z,19.07
2019-04-14T17:58:02.431Z,18.63
2019-04-14T18:00:48.048Z,18.23
2019-04-14T18:03:24.667Z,18.73
2019-04-14T18:05:57.031Z,20.50
2019-04-14T18:08:27.353Z,18.73
2019-04-14T18:10:57.706Z,21.93
2019-04-14T18:13:33.815Z,19.33
2019-04-14T18:16:04.162Z,15.40
2019-04-14T18:18:52.479Z,15.83
2019-04-14T18:21:22.825Z,17.30
2019-04-14T18:23:53.147Z,16.50
2019-04-14T18:26:23.464Z,15.77
2019-04-14T18:28:57.169Z,15.80
2019-04-14T18:31:29.985Z,15.60
2019-04-14T18:34:12.300Z,15.73
2019-04-14T18:36:40.856Z,14.67
2019-04-14T18:39:11.105Z,15.70
2019-04-14T18:41:45.544Z,15.87
2019-04-14T18:44:18.706Z,17.07
2019-04-14T18:46:53.805Z,16.90
2019-04-14T18:49:24.891Z,16.40
2019-04-14T18:52:04.985Z,14.47
2019-04-14T18:54:38.134Z,15.73
2019-04-14T18:57:15.275Z,17.20
2019-04-14T18:59:58.173Z,16.30
2019-04-14T19:02:28.525Z,18.33
2019-04-14T19:04:59.650Z,18.33
2019-04-14T19:07:31.973Z,19.00
2019-04-14T19:10:04.361Z,16.63
2019-04-14T19:12:46.743Z,16.60
2019-04-14T19:15:17.140Z,17.70
2019-04-14T19:17:49.899Z,16.37
2019-04-14T19:20:20.216Z,17.13
2019-04-14T19:22:50.559Z,17.33
2019-04-14T19:25:20.878Z,17.93
2019-04-14T19:27:51.204Z,18.20
2019-04-14T19:30:21.550Z,18.17
2019-04-14T19:32:51.871Z,19.77
2019-04-14T19:35:22.971Z,22.83
2019-04-14T19:37:56.386Z,23.60
2019-04-14T19:40:26.703Z,17.67
2019-04-14T19:43:23.752Z,19.97
2019-04-14T19:45:47.501Z,20.83
2019-04-14T19:48:17.824Z,19.83
2019-04-14T19:50:48.165Z,17.50
2019-04-14T19:53:18.486Z,18.07
2019-04-14T19:55:48.807Z,16.33
2019-04-14T19:58:19.160Z,18.40
2019-04-14T20:00:49.551Z,18.80
2019-04-14T20:03:19.808Z,20.03
2019-04-14T20:05:50.167Z,18.40
2019-04-14T20:08:20.488Z,18.97
2019-04-14T20:10:50.807Z,19.80
2019-04-14T20:13:21.160Z,19.20
2019-04-14T20:15:57.642Z,18.20
2019-04-14T20:18:27.987Z,18.57
2019-04-14T20:21:27.607Z,18.10
2019-04-14T20:24:06.520Z,18.90
2019-04-14T20:26:39.909Z,19.60
2019-04-14T20:29:16.820Z,18.60
2019-04-14T20:31:47.142Z,17.77
2019-04-14T20:34:17.467Z,20.13
2019-04-14T20:36:47.824Z,19.30
2019-04-14T20:39:19.701Z,18.27
2019-04-14T20:41:50.866Z,19.17
2019-04-14T20:44:42.550Z,20.33
2019-04-14T20:47:12.867Z,20.30
2019-04-14T20:49:43.197Z,19.87
2019-04-14T20:52:13.532Z,20.60
2019-04-14T20:54:43.854Z,21.93
2019-04-14T20:57:14.180Z,21.20
2019-04-14T20:59:45.285Z,19.40
2019-04-14T21:02:44.884Z,20.53
2019-04-14T21:05:26.903Z,20.47
2019-04-14T21:08:07.012Z,19.90
2019-04-14T21:13:37.522Z,19.37
2019-04-14T21:16:12.885Z,19.03
2019-04-14T21:18:46.895Z,18.73
2019-04-14T21:21:17.238Z,19.30
2019-04-14T21:23:51.162Z,19.90
2019-04-14T21:26:26.276Z,19.47
2019-04-14T21:28:59.737Z,17.53
2019-04-14T21:31:30.089Z,17.93
2019-04-14T21:34:13.471Z,17.47
2019-04-14T21:37:03.680Z,17.80
2019-04-14T21:40:11.492Z,17.63
2019-04-14T21:42:41.849Z,20.77
2019-04-14T21:45:13.954Z,18.40
2019-04-14T21:47:44.272Z,19.43
2019-04-14T21:50:14.612Z,21.03
2019-04-14T21:52:49.841Z,21.70
2019-04-14T21:55:19.373Z,21.20
2019-04-14T21:58:28.088Z,22.17
2019-04-14T22:01:34.017Z,20.50
2019-04-14T22:04:13.231Z,20.57
2019-04-14T22:06:53.245Z,21.50
2019-04-14T22:09:23.565Z,21.83
2019-04-14T22:11:53.875Z,22.63
2019-04-14T22:14:26.013Z,20.17
2019-04-14T22:16:58.311Z,20.77
2019-04-14T22:19:29.654Z,22.07
2019-04-14T22:21:59.998Z,23.93
2019-04-14T22:24:34.409Z,21.90
2019-04-14T22:27:06.802Z,21.33
2019-04-14T22:29:37.121Z,23.80
2019-04-14T22:32:09.488Z,22.30
2019-04-14T22:34:41.880Z,20.53
2019-04-14T22:37:12.194Z,20.10
2019-04-14T22:40:01.911Z,21.57
2019-04-14T22:42:33.820Z,21.23
2019-04-14T22:45:04.144Z,21.30
2019-04-14T22:47:34.497Z,21.57
2019-04-14T22:50:04.813Z,21.20
2019-04-14T22:52:42.332Z,23.63
2019-04-14T22:55:12.654Z,19.77
2019-04-14T22:57:42.968Z,20.87
2019-04-14T23:00:16.002Z,22.33
2019-04-14T23:02:46.569Z,21.73
2019-04-14T23:05:27.630Z,19.93
2019-04-14T23:08:00.640Z,21.23
2019-04-14T23:11:02.199Z,22.87
2019-04-14T23:13:57.935Z,22.93
2019-04-14T23:16:46.510Z,23.33
2019-04-14T23:19:16.832Z,23.57
2019-04-14T23:21:47.157Z,24.10
2019-04-14T23:24:17.507Z,22.77
2019-04-14T23:26:52.795Z,24.27
2019-04-14T23:29:18.918Z,21.07
2019-04-14T23:32:10.685Z,22.63
2019-04-14T23:34:41.767Z,23.03
2019-04-14T23:37:12.083Z,22.90
2019-04-14T23:39:42.425Z,23.13
2019-04-14T23:42:16.836Z,21.57
2019-04-14T23:44:48.042Z,23.67
2019-04-14T23:47:18.362Z,21.27
2019-04-14T23:49:48.678Z,22.80
2019-04-14T23:52:19.270Z,20.77
2019-04-14T23:54:49.589Z,23.97
2019-04-14T23:57:19.904Z,23.57
2019-04-14T23:59:50.248Z,24.83
